createdAt,value
2023-07-29T00:00:07.740Z,988.93
2023-07-29T00:00:18.058Z,988.93
2023-07-29T00:00:28.435Z,988.91
2023-07-29T00:00:38.696Z,988.91
2023-07-29T00:00:48.974Z,988.91
2023-07-29T00:00:59.229Z,988.91
2023-07-29T00:01:09.501Z,988.91
2023-07-29T00:01:19.793Z,988.90
2023-07-29T00:01:31.960Z,988.90
2023-07-29T00:01:40.487Z,988.89
2023-07-29T00:01:50.830Z,988.88
2023-07-29T00:02:01.179Z,988.88
2023-07-29T00:02:11.492Z,988.87
2023-07-29T00:02:21.757Z,988.86
2023-07-29T00:02:32.123Z,988.85
2023-07-29T00:02:42.495Z,988.85
2023-07-29T00:02:52.854Z,988.84
2023-07-29T00:03:03.188Z,988.83
2023-07-29T00:03:13.682Z,988.83
2023-07-29T00:03:24.068Z,988.82
2023-07-29T00:03:34.365Z,988.81
2023-07-29T00:03:44.441Z,988.81
2023-07-29T00:03:54.698Z,988.81
2023-07-29T00:04:05.006Z,988.81
2023-07-29T00:04:15.294Z,988.81
2023-07-29T00:04:25.602Z,988.81
2023-07-29T00:04:35.896Z,988.81
2023-07-29T00:04:46.156Z,988.81
2023-07-29T00:04:56.437Z,988.81
2023-07-29T00:05:06.704Z,988.81
2023-07-29T00:05:17.042Z,988.81
2023-07-29T00:05:27.287Z,988.81
2023-07-29T00:05:37.544Z,988.81
2023-07-29T00:05:47.806Z,988.81
2023-07-29T00:05:58.065Z,988.81
2023-07-29T00:06:08.318Z,988.81
2023-07-29T00:06:19.653Z,988.81
2023-07-29T00:06:28.836Z,988.82
2023-07-29T00:06:39.314Z,988.81
2023-07-29T00:06:49.489Z,988.82
2023-07-29T00:06:59.755Z,988.81
2023-07-29T00:07:10.014Z,988.81
2023-07-29T00:07:20.272Z,988.82
2023-07-29T00:07:30.538Z,988.82
2023-07-29T00:07:40.792Z,988.81
2023-07-29T00:07:51.051Z,988.81
2023-07-29T00:08:01.319Z,988.80
2023-07-29T00:08:11.585Z,988.80
2023-07-29T00:08:21.840Z,988.79
2023-07-29T00:08:32.112Z,988.80
2023-07-29T00:08:42.471Z,988.79
2023-07-29T00:08:52.694Z,988.79
2023-07-29T00:09:02.983Z,988.78
2023-07-29T00:09:13.310Z,988.78
2023-07-29T00:09:23.562Z,988.78
2023-07-29T00:09:33.849Z,988.78
2023-07-29T00:09:44.087Z,988.78
2023-07-29T00:09:54.353Z,988.77
2023-07-29T00:10:04.617Z,988.77
2023-07-29T00:10:14.869Z,988.77
2023-07-29T00:10:25.128Z,988.77
2023-07-29T00:10:36.880Z,988.76
2023-07-29T00:10:45.632Z,988.76
2023-07-29T00:10:55.891Z,988.76
2023-07-29T00:11:06.166Z,988.76
2023-07-29T00:11:16.430Z,988.77
2023-07-29T00:11:26.694Z,988.76
2023-07-29T00:11:36.944Z,988.75
2023-07-29T00:11:47.196Z,988.75
2023-07-29T00:11:57.559Z,988.75
2023-07-29T00:12:07.824Z,988.74
2023-07-29T00:12:18.101Z,988.74
2023-07-29T00:12:28.352Z,988.73
2023-07-29T00:12:38.604Z,988.74
2023-07-29T00:12:48.872Z,988.74
2023-07-29T00:12:59.137Z,988.73
2023-07-29T00:13:09.466Z,988.73
2023-07-29T00:13:22.223Z,988.74
2023-07-29T00:13:30.053Z,988.73
2023-07-29T00:13:40.311Z,988.73
2023-07-29T00:13:50.602Z,988.73
2023-07-29T00:14:00.864Z,988.73
2023-07-29T00:14:11.106Z,988.73
2023-07-29T00:14:21.382Z,988.73
2023-07-29T00:14:31.623Z,988.73
2023-07-29T00:14:41.886Z,988.73
2023-07-29T00:14:52.377Z,988.74
2023-07-29T00:15:02.432Z,988.74
2023-07-29T00:15:12.720Z,988.74
2023-07-29T00:15:22.982Z,988.74
2023-07-29T00:15:33.274Z,988.74
2023-07-29T00:15:43.534Z,988.74
2023-07-29T00:15:53.784Z,988.74
2023-07-29T00:16:04.039Z,988.75
2023-07-29T00:16:14.313Z,988.75
2023-07-29T00:16:24.615Z,988.75
2023-07-29T00:16:35.238Z,988.76
2023-07-29T00:16:45.345Z,988.76
2023-07-29T00:16:55.677Z,988.76
2023-07-29T00:17:05.991Z,988.76
2023-07-29T00:17:16.280Z,988.76
2023-07-29T00:17:26.589Z,988.76
2023-07-29T00:17:36.840Z,988.75
2023-07-29T00:17:47.129Z,988.75
2023-07-29T00:17:57.462Z,988.74
2023-07-29T00:18:07.741Z,988.75
2023-07-29T00:18:17.968Z,988.75
2023-07-29T00:18:28.248Z,988.74
2023-07-29T00:18:38.514Z,988.73
2023-07-29T00:18:48.769Z,988.74
2023-07-29T00:18:59.061Z,988.74
2023-07-29T00:19:09.612Z,988.72
2023-07-29T00:19:19.650Z,988.72
2023-07-29T00:19:29.918Z,988.72
2023-07-29T00:19:40.170Z,988.72
2023-07-29T00:19:50.434Z,988.72
2023-07-29T00:20:00.696Z,988.72
2023-07-29T00:20:10.977Z,988.72
2023-07-29T00:20:21.245Z,988.71
2023-07-29T00:20:31.511Z,988.71
2023-07-29T00:20:41.795Z,988.70
2023-07-29T00:20:52.143Z,988.70
2023-07-29T00:21:02.433Z,988.70
2023-07-29T00:21:12.707Z,988.70
2023-07-29T00:21:22.948Z,988.69
2023-07-29T00:21:33.208Z,988.69
2023-07-29T00:21:43.478Z,988.69
2023-07-29T00:21:53.733Z,988.69
2023-07-29T00:22:03.996Z,988.69
2023-07-29T00:22:14.257Z,988.69
2023-07-29T00:22:24.519Z,988.70
2023-07-29T00:22:34.818Z,988.70
2023-07-29T00:22:45.070Z,988.70
2023-07-29T00:22:55.392Z,988.70
2023-07-29T00:23:05.698Z,988.71
2023-07-29T00:23:15.985Z,988.71
2023-07-29T00:23:26.245Z,988.71
2023-07-29T00:23:36.511Z,988.71
2023-07-29T00:23:46.768Z,988.71
2023-07-29T00:23:58.697Z,988.72
2023-07-29T00:24:07.448Z,988.72
2023-07-29T00:24:17.724Z,988.72
2023-07-29T00:24:27.969Z,988.72
2023-07-29T00:24:38.230Z,988.72
2023-07-29T00:24:48.510Z,988.72
2023-07-29T00:24:58.824Z,988.72
2023-07-29T00:25:09.073Z,988.72
2023-07-29T00:25:19.336Z,988.71
2023-07-29T00:25:29.644Z,988.71
2023-07-29T00:25:39.884Z,988.71
2023-07-29T00:25:50.131Z,988.71
2023-07-29T00:26:00.390Z,988.70
2023-07-29T00:26:10.653Z,988.70
2023-07-29T00:26:20.946Z,988.70
2023-07-29T00:26:31.199Z,988.70
2023-07-29T00:26:41.473Z,988.69
2023-07-29T00:26:51.719Z,988.69
2023-07-29T00:27:01.980Z,988.69
2023-07-29T00:27:12.257Z,988.69
2023-07-29T00:27:22.514Z,988.69
2023-07-29T00:27:32.852Z,988.68
2023-07-29T00:27:43.125Z,988.69
2023-07-29T00:27:53.425Z,988.69
2023-07-29T00:28:03.720Z,988.68
2023-07-29T00:28:14.498Z,988.68
2023-07-29T00:28:24.340Z,988.68
2023-07-29T00:28:34.622Z,988.68
2023-07-29T00:28:44.916Z,988.67
2023-07-29T00:28:55.185Z,988.67
2023-07-29T00:29:05.471Z,988.67
2023-07-29T00:29:15.745Z,988.68
2023-07-29T00:29:25.996Z,988.68
2023-07-29T00:29:36.275Z,988.68
2023-07-29T00:29:46.536Z,988.68
2023-07-29T00:29:56.821Z,988.67
2023-07-29T00:30:07.076Z,988.68
2023-07-29T00:30:17.346Z,988.67
2023-07-29T00:30:27.688Z,988.67
2023-07-29T00:30:37.981Z,988.67
2023-07-29T00:30:48.313Z,988.67
2023-07-29T00:30:58.594Z,988.67
2023-07-29T00:31:08.888Z,988.67
2023-07-29T00:31:19.212Z,988.67
2023-07-29T00:31:29.530Z,988.67
2023-07-29T00:31:39.805Z,988.67
2023-07-29T00:31:50.172Z,988.67
2023-07-29T00:32:00.512Z,988.67
2023-07-29T00:32:10.811Z,988.67
2023-07-29T00:32:21.070Z,988.67
2023-07-29T00:32:31.372Z,988.66
2023-07-29T00:32:41.634Z,988.66
2023-07-29T00:32:51.932Z,988.66
2023-07-29T00:33:02.342Z,988.65
2023-07-29T00:33:12.453Z,988.64
2023-07-29T00:33:22.703Z,988.64
2023-07-29T00:33:32.960Z,988.64
2023-07-29T00:33:43.228Z,988.64
2023-07-29T00:33:53.488Z,988.63
2023-07-29T00:34:03.766Z,988.63
2023-07-29T00:34:14.009Z,988.62
2023-07-29T00:34:24.273Z,988.62
2023-07-29T00:34:34.533Z,988.62
2023-07-29T00:34:44.824Z,988.61
2023-07-29T00:34:55.072Z,988.61
2023-07-29T00:35:05.323Z,988.60
2023-07-29T00:35:15.595Z,988.60
2023-07-29T00:35:25.845Z,988.60
2023-07-29T00:35:36.110Z,988.60
2023-07-29T00:35:46.364Z,988.59
2023-07-29T00:35:56.629Z,988.59
2023-07-29T00:36:06.903Z,988.59
2023-07-29T00:36:17.186Z,988.59
2023-07-29T00:36:27.439Z,988.58
2023-07-29T00:36:38.034Z,988.58
2023-07-29T00:36:48.110Z,988.58
2023-07-29T00:36:58.391Z,988.58
2023-07-29T00:37:08.678Z,988.58
2023-07-29T00:37:18.944Z,988.58
2023-07-29T00:37:29.180Z,988.58
2023-07-29T00:37:39.459Z,988.58
2023-07-29T00:37:49.725Z,988.57
2023-07-29T00:38:00.361Z,988.57
2023-07-29T00:38:10.423Z,988.57
2023-07-29T00:38:20.663Z,988.57
2023-07-29T00:38:30.930Z,988.57
2023-07-29T00:38:41.182Z,988.57
2023-07-29T00:38:51.437Z,988.57
2023-07-29T00:39:01.703Z,988.57
2023-07-29T00:39:11.964Z,988.57
2023-07-29T00:39:22.241Z,988.57
2023-07-29T00:39:32.485Z,988.57
2023-07-29T00:39:42.738Z,988.58
2023-07-29T00:39:53.018Z,988.58
2023-07-29T00:40:03.260Z,988.58
2023-07-29T00:40:13.532Z,988.58
2023-07-29T00:40:23.796Z,988.58
2023-07-29T00:40:34.048Z,988.58
2023-07-29T00:40:44.323Z,988.58
2023-07-29T00:40:54.575Z,988.58
2023-07-29T00:41:04.845Z,988.59
2023-07-29T00:41:15.126Z,988.59
2023-07-29T00:41:25.383Z,988.60
2023-07-29T00:41:35.648Z,988.59
2023-07-29T00:41:46.241Z,988.59
2023-07-29T00:41:56.287Z,988.59
2023-07-29T00:42:06.548Z,988.59
2023-07-29T00:42:16.811Z,988.59
2023-07-29T00:42:27.086Z,988.60
2023-07-29T00:42:37.335Z,988.60
2023-07-29T00:42:47.589Z,988.60
2023-07-29T00:42:57.848Z,988.60
2023-07-29T00:43:08.123Z,988.61
2023-07-29T00:43:18.370Z,988.61
2023-07-29T00:43:28.634Z,988.60
2023-07-29T00:43:38.894Z,988.61
2023-07-29T00:43:49.151Z,988.61
2023-07-29T00:43:59.426Z,988.61
2023-07-29T00:44:09.698Z,988.61
2023-07-29T00:44:20.058Z,988.62
2023-07-29T00:44:30.353Z,988.62
2023-07-29T00:44:40.604Z,988.62
2023-07-29T00:44:50.857Z,988.61
2023-07-29T00:45:01.130Z,988.62
2023-07-29T00:45:11.381Z,988.61
2023-07-29T00:45:21.658Z,988.62
2023-07-29T00:45:31.925Z,988.62
2023-07-29T00:45:42.182Z,988.61
2023-07-29T00:45:52.484Z,988.61
2023-07-29T00:46:02.769Z,988.61
2023-07-29T00:46:13.044Z,988.61
2023-07-29T00:46:23.369Z,988.61
2023-07-29T00:46:34.260Z,988.61
2023-07-29T00:46:43.895Z,988.61
2023-07-29T00:46:54.131Z,988.62
2023-07-29T00:47:04.419Z,988.61
2023-07-29T00:47:14.669Z,988.61
2023-07-29T00:47:26.103Z,988.62
2023-07-29T00:47:35.335Z,988.61
2023-07-29T00:47:45.660Z,988.61
2023-07-29T00:47:56.049Z,988.61
2023-07-29T00:48:06.385Z,988.61
2023-07-29T00:48:16.693Z,988.61
2023-07-29T00:48:27.253Z,988.60
2023-07-29T00:48:37.371Z,988.60
2023-07-29T00:48:47.742Z,988.60
2023-07-29T00:48:58.016Z,988.59
2023-07-29T00:49:08.314Z,988.59
2023-07-29T00:49:18.584Z,988.59
2023-07-29T00:49:28.842Z,988.59
2023-07-29T00:49:39.103Z,988.59
2023-07-29T00:49:49.360Z,988.59
2023-07-29T00:49:59.613Z,988.58
2023-07-29T00:50:09.883Z,988.58
2023-07-29T00:50:20.183Z,988.58
2023-07-29T00:50:30.468Z,988.58
2023-07-29T00:50:40.731Z,988.58
2023-07-29T00:50:51.000Z,988.58
2023-07-29T00:51:01.297Z,988.58
2023-07-29T00:51:11.568Z,988.58
2023-07-29T00:51:21.841Z,988.58
2023-07-29T00:51:32.112Z,988.59
2023-07-29T00:51:42.369Z,988.58
2023-07-29T00:51:52.628Z,988.59
2023-07-29T00:52:02.893Z,988.59
2023-07-29T00:52:14.280Z,988.59
2023-07-29T00:52:23.470Z,988.58
2023-07-29T00:52:33.784Z,988.59
2023-07-29T00:52:44.089Z,988.59
2023-07-29T00:52:54.321Z,988.59
2023-07-29T00:53:04.596Z,988.58
2023-07-29T00:53:14.854Z,988.58
2023-07-29T00:53:25.124Z,988.58
2023-07-29T00:53:35.420Z,988.57
2023-07-29T00:53:45.675Z,988.57
2023-07-29T00:53:55.980Z,988.57
2023-07-29T00:54:06.229Z,988.56
2023-07-29T00:54:16.512Z,988.56
2023-07-29T00:54:26.771Z,988.56
2023-07-29T00:54:37.021Z,988.56
2023-07-29T00:54:47.279Z,988.56
2023-07-29T00:54:57.547Z,988.56
2023-07-29T00:55:07.828Z,988.56
2023-07-29T00:55:18.112Z,988.55
2023-07-29T00:55:28.444Z,988.55
2023-07-29T00:55:38.825Z,988.55
2023-07-29T00:55:49.113Z,988.55
2023-07-29T00:55:59.337Z,988.54
2023-07-29T00:56:09.632Z,988.54
2023-07-29T00:56:19.888Z,988.54
2023-07-29T00:56:30.237Z,988.54
2023-07-29T00:56:40.533Z,988.54
2023-07-29T00:56:50.833Z,988.53
2023-07-29T00:57:01.054Z,988.53
2023-07-29T00:57:11.312Z,988.53
2023-07-29T00:57:21.581Z,988.53
2023-07-29T00:57:31.870Z,988.52
2023-07-29T00:57:42.145Z,988.51
2023-07-29T00:57:52.431Z,988.51
2023-07-29T00:58:02.661Z,988.50
2023-07-29T00:58:12.937Z,988.50
2023-07-29T00:58:23.196Z,988.49
2023-07-29T00:58:33.478Z,988.49
2023-07-29T00:58:43.732Z,988.48
2023-07-29T00:58:53.984Z,988.48
2023-07-29T00:59:04.277Z,988.47
2023-07-29T00:59:14.524Z,988.47
2023-07-29T00:59:24.814Z,988.46
2023-07-29T00:59:35.048Z,988.46
2023-07-29T00:59:45.337Z,988.45
2023-07-29T00:59:55.585Z,988.45
2023-07-29T01:00:05.867Z,988.45
2023-07-29T01:00:16.169Z,988.44
2023-07-29T01:00:26.437Z,988.43
2023-07-29T01:00:36.725Z,988.43
2023-07-29T01:00:46.981Z,988.43
2023-07-29T01:00:57.244Z,988.44
2023-07-29T01:01:07.511Z,988.43
2023-07-29T01:01:17.791Z,988.43
2023-07-29T01:01:28.072Z,988.43
2023-07-29T01:01:38.368Z,988.44
2023-07-29T01:01:48.667Z,988.44
2023-07-29T01:01:58.955Z,988.44
2023-07-29T01:02:09.201Z,988.44
2023-07-29T01:02:19.460Z,988.44
2023-07-29T01:02:29.776Z,988.44
2023-07-29T01:02:40.094Z,988.44
2023-07-29T01:02:50.471Z,988.44
2023-07-29T01:03:00.826Z,988.44
2023-07-29T01:03:11.233Z,988.44
2023-07-29T01:03:21.418Z,988.44
2023-07-29T01:03:31.747Z,988.44
2023-07-29T01:03:42.144Z,988.44
2023-07-29T01:03:52.386Z,988.43
2023-07-29T01:04:02.835Z,988.43
2023-07-29T01:04:13.107Z,988.43
2023-07-29T01:04:23.397Z,988.42
2023-07-29T01:04:33.671Z,988.42
2023-07-29T01:04:43.950Z,988.42
2023-07-29T01:04:54.232Z,988.41
2023-07-29T01:05:04.551Z,988.41
2023-07-29T01:05:14.838Z,988.40
2023-07-29T01:05:25.107Z,988.40
2023-07-29T01:05:35.335Z,988.39
2023-07-29T01:05:45.592Z,988.39
2023-07-29T01:05:55.852Z,988.39
2023-07-29T01:06:06.142Z,988.38
2023-07-29T01:06:16.409Z,988.38
2023-07-29T01:06:26.646Z,988.37
2023-07-29T01:06:37.139Z,988.37
2023-07-29T01:06:47.281Z,988.36
2023-07-29T01:06:57.533Z,988.36
2023-07-29T01:07:07.811Z,988.35
2023-07-29T01:07:18.088Z,988.35
2023-07-29T01:07:28.352Z,988.35
2023-07-29T01:07:38.619Z,988.35
2023-07-29T01:07:48.874Z,988.35
2023-07-29T01:07:59.141Z,988.34
2023-07-29T01:08:09.401Z,988.34
2023-07-29T01:08:19.665Z,988.34
2023-07-29T01:08:29.944Z,988.34
2023-07-29T01:08:40.241Z,988.33
2023-07-29T01:08:50.488Z,988.33
2023-07-29T01:09:00.809Z,988.33
2023-07-29T01:09:11.102Z,988.32
2023-07-29T01:09:21.385Z,988.32
2023-07-29T01:09:31.675Z,988.32
2023-07-29T01:09:41.937Z,988.31
2023-07-29T01:09:52.193Z,988.31
2023-07-29T01:10:02.464Z,988.30
2023-07-29T01:10:12.731Z,988.29
2023-07-29T01:10:22.981Z,988.29
2023-07-29T01:10:33.243Z,988.28
2023-07-29T01:10:43.501Z,988.28
2023-07-29T01:10:53.787Z,988.27
2023-07-29T01:11:04.072Z,988.27
2023-07-29T01:11:14.359Z,988.27
2023-07-29T01:11:24.607Z,988.26
2023-07-29T01:11:34.874Z,988.26
2023-07-29T01:11:45.187Z,988.25
2023-07-29T01:11:55.508Z,988.25
2023-07-29T01:12:05.833Z,988.24
2023-07-29T01:12:16.116Z,988.24
2023-07-29T01:12:26.445Z,988.24
2023-07-29T01:12:36.729Z,988.23
2023-07-29T01:12:47.286Z,988.23
2023-07-29T01:12:57.322Z,988.22
2023-07-29T01:13:07.590Z,988.22
2023-07-29T01:13:17.848Z,988.22
2023-07-29T01:13:28.107Z,988.22
2023-07-29T01:13:38.387Z,988.22
2023-07-29T01:13:48.658Z,988.22
2023-07-29T01:13:58.939Z,988.22
2023-07-29T01:14:09.198Z,988.23
2023-07-29T01:14:19.460Z,988.23
2023-07-29T01:14:29.728Z,988.23
2023-07-29T01:14:39.987Z,988.24
2023-07-29T01:14:50.243Z,988.24
2023-07-29T01:15:00.522Z,988.25
2023-07-29T01:15:10.777Z,988.25
2023-07-29T01:15:21.157Z,988.26
2023-07-29T01:15:31.397Z,988.26
2023-07-29T01:15:41.675Z,988.27
2023-07-29T01:15:51.954Z,988.27
2023-07-29T01:16:02.294Z,988.27
2023-07-29T01:16:12.582Z,988.28
2023-07-29T01:16:22.865Z,988.28
2023-07-29T01:16:33.137Z,988.29
2023-07-29T01:16:43.376Z,988.29
2023-07-29T01:16:53.639Z,988.29
2023-07-29T01:17:03.897Z,988.29
2023-07-29T01:17:14.178Z,988.30
2023-07-29T01:17:24.440Z,988.30
2023-07-29T01:17:34.708Z,988.30
2023-07-29T01:17:45.011Z,988.30
2023-07-29T01:17:55.325Z,988.30
2023-07-29T01:18:05.599Z,988.31
2023-07-29T01:18:15.918Z,988.31
2023-07-29T01:18:26.197Z,988.31
2023-07-29T01:18:36.467Z,988.32
2023-07-29T01:18:46.741Z,988.32
2023-07-29T01:18:57.016Z,988.32
2023-07-29T01:19:07.284Z,988.33
2023-07-29T01:19:17.560Z,988.32
2023-07-29T01:19:27.816Z,988.32
2023-07-29T01:19:38.081Z,988.32
2023-07-29T01:19:48.348Z,988.33
2023-07-29T01:19:58.612Z,988.32
2023-07-29T01:20:08.884Z,988.32
2023-07-29T01:20:19.131Z,988.32
2023-07-29T01:20:29.402Z,988.32
2023-07-29T01:20:39.650Z,988.31
2023-07-29T01:20:49.921Z,988.31
2023-07-29T01:21:00.184Z,988.31
2023-07-29T01:21:10.442Z,988.30
2023-07-29T01:21:20.696Z,988.30
2023-07-29T01:21:30.959Z,988.30
2023-07-29T01:21:41.225Z,988.29
2023-07-29T01:21:51.489Z,988.29
2023-07-29T01:22:01.741Z,988.29
2023-07-29T01:22:12.018Z,988.29
2023-07-29T01:22:22.264Z,988.29
2023-07-29T01:22:32.538Z,988.29
2023-07-29T01:22:42.790Z,988.29
2023-07-29T01:22:53.060Z,988.29
2023-07-29T01:23:03.336Z,988.29
2023-07-29T01:23:13.629Z,988.30
2023-07-29T01:23:23.895Z,988.30
2023-07-29T01:23:34.142Z,988.31
2023-07-29T01:23:44.404Z,988.31
2023-07-29T01:23:54.718Z,988.31
2023-07-29T01:24:04.981Z,988.31
2023-07-29T01:24:15.237Z,988.31
2023-07-29T01:24:25.503Z,988.31
2023-07-29T01:24:35.789Z,988.31
2023-07-29T01:24:46.034Z,988.31
2023-07-29T01:24:56.285Z,988.31
2023-07-29T01:25:06.559Z,988.31
2023-07-29T01:25:16.824Z,988.31
2023-07-29T01:25:27.076Z,988.32
2023-07-29T01:25:37.354Z,988.32
2023-07-29T01:25:47.615Z,988.32
2023-07-29T01:25:57.893Z,988.33
2023-07-29T01:26:08.139Z,988.33
2023-07-29T01:26:18.404Z,988.33
2023-07-29T01:26:28.658Z,988.33
2023-07-29T01:26:39.354Z,988.33
2023-07-29T01:26:49.299Z,988.33
2023-07-29T01:26:59.558Z,988.34
2023-07-29T01:27:09.833Z,988.33
2023-07-29T01:27:20.107Z,988.33
2023-07-29T01:27:30.388Z,988.33
2023-07-29T01:27:40.664Z,988.34
2023-07-29T01:27:50.952Z,988.34
2023-07-29T01:28:01.244Z,988.33
2023-07-29T01:28:11.525Z,988.33
2023-07-29T01:28:21.748Z,988.33
2023-07-29T01:28:32.050Z,988.32
2023-07-29T01:28:42.368Z,988.32
2023-07-29T01:28:52.643Z,988.32
2023-07-29T01:29:02.906Z,988.32
2023-07-29T01:29:13.151Z,988.31
2023-07-29T01:29:23.414Z,988.31
2023-07-29T01:29:33.674Z,988.31
2023-07-29T01:29:43.934Z,988.30
2023-07-29T01:29:54.227Z,988.30
2023-07-29T01:30:04.488Z,988.30
2023-07-29T01:30:17.980Z,988.29
2023-07-29T01:30:25.124Z,988.29
2023-07-29T01:30:35.393Z,988.29
2023-07-29T01:30:45.653Z,988.28
2023-07-29T01:30:55.914Z,988.28
2023-07-29T01:31:06.187Z,988.28
2023-07-29T01:31:16.458Z,988.27
2023-07-29T01:31:26.749Z,988.27
2023-07-29T01:31:37.037Z,988.27
2023-07-29T01:31:47.315Z,988.26
2023-07-29T01:31:57.736Z,988.26
2023-07-29T01:32:07.957Z,988.26
2023-07-29T01:32:18.280Z,988.25
2023-07-29T01:32:28.599Z,988.25
2023-07-29T01:32:38.896Z,988.24
2023-07-29T01:32:49.183Z,988.24
2023-07-29T01:32:59.440Z,988.24
2023-07-29T01:33:09.729Z,988.24
2023-07-29T01:33:19.970Z,988.23
2023-07-29T01:33:30.269Z,988.23
2023-07-29T01:33:40.536Z,988.23
2023-07-29T01:33:50.801Z,988.23
2023-07-29T01:34:01.066Z,988.23
2023-07-29T01:34:11.333Z,988.23
2023-07-29T01:34:21.600Z,988.23
2023-07-29T01:34:31.878Z,988.24
2023-07-29T01:34:42.197Z,988.24
2023-07-29T01:34:52.421Z,988.24
2023-07-29T01:35:02.691Z,988.25
2023-07-29T01:35:12.970Z,988.26
2023-07-29T01:35:23.244Z,988.26
2023-07-29T01:35:33.515Z,988.27
2023-07-29T01:35:43.785Z,988.28
2023-07-29T01:35:54.036Z,988.28
2023-07-29T01:36:04.308Z,988.29
2023-07-29T01:36:14.559Z,988.29
2023-07-29T01:36:24.829Z,988.30
2023-07-29T01:36:35.482Z,988.30
2023-07-29T01:36:47.541Z,988.30
2023-07-29T01:36:55.768Z,988.30
2023-07-29T01:37:06.035Z,988.30
2023-07-29T01:37:16.323Z,988.30
2023-07-29T01:37:26.584Z,988.30
2023-07-29T01:37:36.849Z,988.29
2023-07-29T01:37:47.110Z,988.29
2023-07-29T01:37:57.371Z,988.29
2023-07-29T01:38:07.630Z,988.28
2023-07-29T01:38:17.890Z,988.27
2023-07-29T01:38:28.153Z,988.27
2023-07-29T01:38:38.425Z,988.26
2023-07-29T01:38:48.674Z,988.26
2023-07-29T01:38:58.978Z,988.25
2023-07-29T01:39:09.235Z,988.25
2023-07-29T01:39:19.487Z,988.24
2023-07-29T01:39:29.748Z,988.24
2023-07-29T01:39:40.039Z,988.24
2023-07-29T01:39:50.271Z,988.24
2023-07-29T01:40:00.546Z,988.25
2023-07-29T01:40:10.798Z,988.25
2023-07-29T01:40:21.056Z,988.25
2023-07-29T01:40:31.316Z,988.25
2023-07-29T01:40:41.585Z,988.25
2023-07-29T01:40:51.849Z,988.25
2023-07-29T01:41:02.100Z,988.25
2023-07-29T01:41:12.376Z,988.26
2023-07-29T01:41:22.630Z,988.26
2023-07-29T01:41:32.893Z,988.26
2023-07-29T01:41:43.158Z,988.27
2023-07-29T01:41:53.422Z,988.27
2023-07-29T01:42:03.695Z,988.28
2023-07-29T01:42:13.959Z,988.28
2023-07-29T01:42:24.223Z,988.28
2023-07-29T01:42:34.482Z,988.28
2023-07-29T01:42:44.754Z,988.28
2023-07-29T01:42:55.020Z,988.29
2023-07-29T01:43:05.276Z,988.29
2023-07-29T01:43:15.526Z,988.29
2023-07-29T01:43:25.795Z,988.29
2023-07-29T01:43:36.063Z,988.29
2023-07-29T01:43:46.332Z,988.28
2023-07-29T01:43:56.601Z,988.28
2023-07-29T01:44:06.853Z,988.28
2023-07-29T01:44:17.122Z,988.28
2023-07-29T01:44:27.590Z,988.29
2023-07-29T01:44:37.614Z,988.29
2023-07-29T01:44:47.885Z,988.29
2023-07-29T01:44:58.140Z,988.28
2023-07-29T01:45:08.455Z,988.28
2023-07-29T01:45:18.723Z,988.28
2023-07-29T01:45:28.975Z,988.28
2023-07-29T01:45:39.309Z,988.28
2023-07-29T01:45:49.675Z,988.27
2023-07-29T01:45:59.925Z,988.27
2023-07-29T01:46:10.224Z,988.27
2023-07-29T01:46:20.506Z,988.27
2023-07-29T01:46:30.785Z,988.26
2023-07-29T01:46:41.047Z,988.26
2023-07-29T01:46:51.318Z,988.25
2023-07-29T01:47:01.591Z,988.25
2023-07-29T01:47:11.858Z,988.25
2023-07-29T01:47:22.103Z,988.25
2023-07-29T01:47:32.427Z,988.24
2023-07-29T01:47:42.722Z,988.24
2023-07-29T01:47:53.066Z,988.23
2023-07-29T01:48:03.395Z,988.22
2023-07-29T01:48:13.666Z,988.21
2023-07-29T01:48:23.916Z,988.21
2023-07-29T01:48:34.179Z,988.20
2023-07-29T01:48:44.449Z,988.19
2023-07-29T01:48:54.702Z,988.19
2023-07-29T01:49:04.970Z,988.19
2023-07-29T01:49:15.226Z,988.18
2023-07-29T01:49:25.508Z,988.18
2023-07-29T01:49:35.764Z,988.17
2023-07-29T01:49:46.114Z,988.17
2023-07-29T01:49:56.424Z,988.17
2023-07-29T01:50:06.684Z,988.17
2023-07-29T01:50:16.915Z,988.17
2023-07-29T01:50:27.249Z,988.17
2023-07-29T01:50:37.488Z,988.17
2023-07-29T01:50:47.739Z,988.17
2023-07-29T01:50:58.021Z,988.18
2023-07-29T01:51:08.283Z,988.18
2023-07-29T01:51:18.581Z,988.18
2023-07-29T01:51:28.985Z,988.18
2023-07-29T01:51:39.250Z,988.19
2023-07-29T01:51:49.506Z,988.20
2023-07-29T01:51:59.772Z,988.20
2023-07-29T01:52:10.031Z,988.21
2023-07-29T01:52:20.308Z,988.21
2023-07-29T01:52:30.555Z,988.22
2023-07-29T01:52:40.820Z,988.22
2023-07-29T01:52:51.080Z,988.22
2023-07-29T01:53:01.354Z,988.22
2023-07-29T01:53:11.618Z,988.23
2023-07-29T01:53:21.870Z,988.23
2023-07-29T01:53:32.144Z,988.23
2023-07-29T01:53:42.406Z,988.23
2023-07-29T01:53:52.664Z,988.23
2023-07-29T01:54:02.944Z,988.23
2023-07-29T01:54:13.191Z,988.23
2023-07-29T01:54:23.443Z,988.23
2023-07-29T01:54:33.705Z,988.22
2023-07-29T01:54:44.004Z,988.21
2023-07-29T01:54:54.237Z,988.22
2023-07-29T01:55:04.628Z,988.21
2023-07-29T01:55:14.906Z,988.22
2023-07-29T01:55:25.264Z,988.21
2023-07-29T01:55:35.568Z,988.21
2023-07-29T01:55:45.923Z,988.22
2023-07-29T01:55:56.062Z,988.22
2023-07-29T01:56:06.307Z,988.22
2023-07-29T01:56:16.610Z,988.21
2023-07-29T01:56:26.881Z,988.21
2023-07-29T01:56:37.399Z,988.22
2023-07-29T01:56:47.563Z,988.21
2023-07-29T01:56:57.837Z,988.22
2023-07-29T01:57:08.097Z,988.22
2023-07-29T01:57:18.359Z,988.21
2023-07-29T01:57:29.146Z,988.22
2023-07-29T01:57:39.161Z,988.21
2023-07-29T01:57:49.428Z,988.21
2023-07-29T01:58:00.874Z,988.21
2023-07-29T01:58:10.058Z,988.21
2023-07-29T01:58:20.326Z,988.21
2023-07-29T01:58:30.599Z,988.20
2023-07-29T01:58:41.016Z,988.20
2023-07-29T01:58:51.265Z,988.20
2023-07-29T01:59:01.526Z,988.20
2023-07-29T01:59:11.797Z,988.20
2023-07-29T01:59:22.060Z,988.20
2023-07-29T01:59:32.318Z,988.20
2023-07-29T01:59:42.588Z,988.20
2023-07-29T01:59:52.844Z,988.19
2023-07-29T02:00:03.124Z,988.19
2023-07-29T02:00:13.436Z,988.19
2023-07-29T02:00:23.705Z,988.20
2023-07-29T02:00:33.977Z,988.19
2023-07-29T02:00:44.258Z,988.19
2023-07-29T02:00:54.537Z,988.19
2023-07-29T02:01:04.809Z,988.20
2023-07-29T02:01:16.499Z,988.20
2023-07-29T02:01:25.421Z,988.20
2023-07-29T02:01:35.737Z,988.21
2023-07-29T02:01:46.054Z,988.20
2023-07-29T02:01:56.316Z,988.20
2023-07-29T02:02:06.584Z,988.19
2023-07-29T02:02:16.840Z,988.19
2023-07-29T02:02:27.143Z,988.20
2023-07-29T02:02:37.400Z,988.20
2023-07-29T02:02:47.721Z,988.20
2023-07-29T02:02:58.008Z,988.20
2023-07-29T02:03:08.312Z,988.20
2023-07-29T02:03:18.547Z,988.20
2023-07-29T02:03:28.816Z,988.20
2023-07-29T02:03:39.076Z,988.20
2023-07-29T02:03:49.339Z,988.20
2023-07-29T02:03:59.643Z,988.20
2023-07-29T02:04:09.944Z,988.20
2023-07-29T02:04:20.241Z,988.20
2023-07-29T02:04:30.571Z,988.20
2023-07-29T02:04:40.891Z,988.20
2023-07-29T02:04:51.176Z,988.20
2023-07-29T02:05:01.442Z,988.20
2023-07-29T02:05:11.711Z,988.20
2023-07-29T02:05:21.985Z,988.20
2023-07-29T02:05:34.335Z,988.20
2023-07-29T02:05:42.649Z,988.20
2023-07-29T02:05:52.915Z,988.20
2023-07-29T02:06:03.204Z,988.20
2023-07-29T02:06:13.444Z,988.20
2023-07-29T02:06:23.711Z,988.20
2023-07-29T02:06:44.371Z,988.21
2023-07-29T02:06:54.632Z,988.21
2023-07-29T02:07:04.897Z,988.21
2023-07-29T02:07:15.178Z,988.20
2023-07-29T02:07:25.416Z,988.20
2023-07-29T02:07:35.677Z,988.21
2023-07-29T02:07:45.956Z,988.21
2023-07-29T02:07:56.220Z,988.20
2023-07-29T02:08:06.458Z,988.21
2023-07-29T02:08:16.730Z,988.20
2023-07-29T02:08:26.987Z,988.20